Time;durP1;ratioP1;P1;durP2;ratioP2;P2;SDS_P1;SDS_P2;PMS_P1;PMS_P2;Temp;Humidity;BMP_temperature;BMP_pressure;BME280_temperature;BME280_humidity;BME280_pressure;Samples;Min_cycle;Max_cycle;Signal;HPM_P1;HPM_P2
2022/03/12 00:00:46;;;;;;;5.30;2.60;;;8.90;38.40;;;;;;4901541;29;20698;-83
2022/03/12 00:03:13;;;;;;;6.97;2.78;;;8.90;38.40;;;;;;4897680;29;20100;-82
2022/03/12 00:05:47;;;;;;;5.30;2.80;;;8.90;38.50;;;;;;4918548;29;20044;-83
2022/03/12 00:08:13;;;;;;;5.75;3.05;;;8.90;38.50;;;;;;4907763;28;20059;-82
2022/03/12 00:10:41;;;;;;;5.57;2.88;;;8.80;38.60;;;;;;4914516;28;20056;-83
2022/03/12 00:13:07;;;;;;;4.00;2.45;;;8.80;38.80;;;;;;4901001;28;20044;-83
2022/03/12 00:15:38;;;;;;;4.55;2.88;;;8.90;39.00;;;;;;4904510;29;20044;-83
2022/03/12 00:18:06;;;;;;;4.63;2.63;;;8.80;39.00;;;;;;4891825;29;20037;-84
2022/03/12 00:20:32;;;;;;;4.80;2.55;;;8.80;39.20;;;;;;4903446;28;20496;-84
2022/03/12 00:22:58;;;;;;;5.00;2.53;;;8.80;39.30;;;;;;4902395;29;20037;-84
2022/03/12 00:25:26;;;;;;;3.38;2.33;;;8.80;39.40;;;;;;4902905;28;20527;-84
2022/03/12 00:27:54;;;;;;;3.20;2.38;;;8.80;39.40;;;;;;4900530;28;20175;-81
2022/03/12 00:30:23;;;;;;;3.78;2.60;;;8.80;39.40;;;;;;4902945;29;20481;-84
2022/03/12 00:32:52;;;;;;;5.00;2.85;;;8.80;39.50;;;;;;4917537;28;20065;-82
2022/03/12 00:35:18;;;;;;;3.67;2.47;;;8.80;39.50;;;;;;4917684;28;20508;-84
2022/03/12 00:37:45;;;;;;;5.95;2.60;;;8.80;39.70;;;;;;4933542;28;20043;-84
2022/03/12 00:40:12;;;;;;;5.00;2.63;;;8.80;39.70;;;;;;4917412;28;20044;-84
2022/03/12 00:42:38;;;;;;;3.67;2.65;;;8.80;39.70;;;;;;4887376;29;20044;-85
2022/03/12 00:45:04;;;;;;;3.38;2.72;;;8.80;39.70;;;;;;4917114;29;20040;-85
2022/03/12 00:47:31;;;;;;;4.35;2.38;;;8.80;39.80;;;;;;4900361;29;20139;-83
2022/03/12 00:49:57;;;;;;;3.78;2.30;;;8.80;39.80;;;;;;4891957;29;20448;-81
2022/03/12 00:52:23;;;;;;;3.42;2.15;;;8.80;39.90;;;;;;4902362;28;20041;-84
2022/03/12 00:54:49;;;;;;;3.75;2.08;;;8.80;40.00;;;;;;4901288;28;20132;-83
2022/03/12 00:57:15;;;;;;;3.42;2.13;;;8.80;40.00;;;;;;4902589;29;20032;-85
2022/03/12 00:59:42;;;;;;;3.90;2.53;;;8.80;40.00;;;;;;4901794;29;20040;-85
2022/03/12 01:02:13;;;;;;;2.97;1.77;;;8.80;40.00;;;;;;4915618;28;20047;-84
2022/03/12 01:04:39;;;;;;;3.17;1.98;;;8.80;40.10;;;;;;4902749;28;20134;-85
2022/03/12 01:07:05;;;;;;;3.83;2.30;;;8.80;40.20;;;;;;4905742;28;20562;-85
2022/03/12 01:09:32;;;;;;;4.25;2.15;;;8.80;40.20;;;;;;4906306;29;20103;-86
2022/03/12 01:11:58;;;;;;;5.13;2.10;;;8.80;40.20;;;;;;4919897;28;20096;-84
2022/03/12 01:14:24;;;;;;;4.88;2.05;;;8.80;40.40;;;;;;4908821;28;20048;-83
2022/03/12 01:16:50;;;;;;;2.85;2.00;;;8.80;40.40;;;;;;4917415;29;20108;-84
2022/03/12 01:19:16;;;;;;;4.97;2.30;;;8.80;40.40;;;;;;4905828;29;20119;-83
2022/03/12 01:21:42;;;;;;;3.17;2.30;;;8.80;40.40;;;;;;4903511;29;20192;-84
2022/03/12 01:24:08;;;;;;;3.45;2.00;;;8.80;40.50;;;;;;4901948;29;20612;-82
2022/03/12 01:26:35;;;;;;;2.78;2.13;;;8.80;40.60;;;;;;4903294;29;20067;-82
2022/03/12 01:29:02;;;;;;;3.17;2.15;;;8.80;40.60;;;;;;4916669;29;20028;-83
2022/03/12 01:31:28;;;;;;;4.75;2.28;;;8.80;40.60;;;;;;4900712;29;20538;-83
2022/03/12 01:33:54;;;;;;;3.83;2.30;;;8.80;40.60;;;;;;4874188;28;20080;-83
2022/03/12 01:36:20;;;;;;;3.03;1.83;;;8.80;40.70;;;;;;4901899;29;20035;-82
2022/03/12 01:38:52;;;;;;;2.97;1.70;;;8.80;40.70;;;;;;4900928;28;20123;-83
2022/03/12 01:41:27;;;;;;;2.80;1.85;;;8.80;40.80;;;;;;4904480;29;20055;-84
2022/03/12 01:43:54;;;;;;;3.25;2.00;;;8.80;40.80;;;;;;4901250;28;20043;-84
2022/03/12 01:46:35;;;;;;;2.80;1.90;;;8.80;40.90;;;;;;4900779;29;20036;-83
2022/03/12 01:49:12;;;;;;;6.72;2.05;;;8.80;41.00;;;;;;4902745;29;20115;-82
2022/03/12 01:51:41;;;;;;;2.67;1.70;;;8.80;41.00;;;;;;4902084;29;20040;-83
2022/03/12 01:54:07;;;;;;;5.57;1.95;;;8.80;40.90;;;;;;4889558;29;20441;-84
2022/03/12 01:56:37;;;;;;;3.67;1.83;;;8.80;40.90;;;;;;4930764;28;20599;-84
2022/03/12 01:59:03;;;;;;;2.70;1.92;;;8.80;41.00;;;;;;4900008;29;20044;-84
2022/03/12 02:01:30;;;;;;;4.70;2.17;;;8.80;41.00;;;;;;4901010;29;20060;-85
2022/03/12 02:03:58;;;;;;;3.47;1.88;;;8.80;40.90;;;;;;4900914;29;20521;-85
2022/03/12 02:06:26;;;;;;;4.15;2.28;;;8.80;41.50;;;;;;4916897;29;21162;-81
2022/03/12 02:08:55;;;;;;;3.40;2.00;;;8.80;41.00;;;;;;4916014;29;20515;-81
2022/03/12 02:11:39;;;;;;;3.72;2.10;;;8.80;40.90;;;;;;4917644;29;20065;-84
2022/03/12 02:14:11;;;;;;;3.35;1.80;;;8.80;41.00;;;;;;4888078;29;20065;-80
2022/03/12 02:16:38;;;;;;;3.58;2.03;;;8.80;40.90;;;;;;4915313;28;20497;-80
2022/03/12 02:19:06;;;;;;;5.38;1.98;;;8.80;41.00;;;;;;4899834;28;20036;-79
2022/03/12 02:21:43;;;;;;;4.28;2.22;;;8.80;41.00;;;;;;4900162;29;20601;-80
2022/03/12 02:24:12;;;;;;;3.80;2.30;;;8.80;41.00;;;;;;4898387;29;20575;-79
2022/03/12 02:26:42;;;;;;;2.40;1.65;;;8.80;41.00;;;;;;4900005;28;20136;-79
2022/03/12 02:29:12;;;;;;;3.28;2.00;;;8.80;41.00;;;;;;4898399;29;20387;-80
2022/03/12 02:31:45;;;;;;;3.17;1.90;;;8.80;41.00;;;;;;4898502;29;20044;-82
2022/03/12 02:34:12;;;;;;;4.95;2.10;;;8.80;40.90;;;;;;4900920;29;20825;-82
2022/03/12 02:36:39;;;;;;;2.70;1.90;;;8.80;41.00;;;;;;4881826;29;20047;-82
2022/03/12 02:39:07;;;;;;;3.00;2.00;;;8.80;41.00;;;;;;4897194;29;20225;-81
2022/03/12 02:41:33;;;;;;;4.50;1.98;;;8.70;41.00;;;;;;4909548;29;20040;-82
2022/03/12 02:44:00;;;;;;;3.55;1.90;;;8.80;41.00;;;;;;4896739;28;20040;-81
2022/03/12 02:46:32;;;;;;;4.20;2.25;;;8.80;41.10;;;;;;4879957;29;20076;-81
2022/03/12 02:49:02;;;;;;;4.95;2.25;;;8.80;41.10;;;;;;4896216;28;20028;-82
2022/03/12 02:51:28;;;;;;;2.63;1.90;;;8.70;41.00;;;;;;4895456;29;20024;-81
2022/03/12 02:53:56;;;;;;;3.95;1.80;;;8.80;41.00;;;;;;4896249;29;20530;-81
2022/03/12 02:56:23;;;;;;;2.75;2.17;;;8.80;41.00;;;;;;4884164;29;20188;-81
2022/03/12 02:58:50;;;;;;;3.17;2.00;;;8.70;40.90;;;;;;4896509;28;20032;-82
2022/03/12 03:01:16;;;;;;;3.22;2.13;;;8.70;40.80;;;;;;4880776;29;20032;-82
2022/03/12 03:03:44;;;;;;;2.80;2.17;;;8.70;40.80;;;;;;4896847;29;20043;-81
2022/03/12 03:06:13;;;;;;;3.10;1.98;;;8.70;40.80;;;;;;4895227;29;20036;-80
2022/03/12 03:08:40;;;;;;;3.42;2.10;;;8.70;40.90;;;;;;4894590;29;20033;-81
2022/03/12 03:11:14;;;;;;;3.03;2.33;;;8.70;40.80;;;;;;4896373;28;20041;-81
2022/03/12 03:13:44;;;;;;;3.17;1.80;;;8.70;41.00;;;;;;4914487;29;20041;-80
2022/03/12 03:16:21;;;;;;;3.22;2.38;;;8.70;40.90;;;;;;4911005;28;20124;-82
2022/03/12 03:18:53;;;;;;;3.75;2.13;;;8.70;40.80;;;;;;4916723;29;20071;-80
2022/03/12 03:21:24;;;;;;;3.13;1.90;;;8.70;40.80;;;;;;4918744;29;20040;-81
2022/03/12 03:23:53;;;;;;;4.35;2.10;;;8.70;40.90;;;;;;4900586;28;20043;-80
2022/03/12 03:26:58;;;;;;;4.10;1.80;;;8.70;41.00;;;;;;4915762;29;20051;-81
2022/03/12 03:29:26;;;;;;;3.55;2.22;;;8.70;41.00;;;;;;4897888;29;20043;-80
2022/03/12 03:31:52;;;;;;;2.72;2.00;;;8.70;41.00;;;;;;4859470;29;20032;-80
2022/03/12 03:34:20;;;;;;;3.67;2.25;;;8.70;41.10;;;;;;4882010;29;20051;-82
2022/03/12 03:36:46;;;;;;;3.88;2.50;;;8.70;41.00;;;;;;4882252;29;20924;-80
2022/03/12 03:39:12;;;;;;;3.80;2.20;;;8.70;41.00;;;;;;4898766;29;20052;-81
2022/03/12 03:41:40;;;;;;;3.05;1.90;;;8.70;41.00;;;;;;4897154;29;20496;-81
2022/03/12 03:44:08;;;;;;;3.33;2.05;;;8.70;41.00;;;;;;4897237;29;20057;-81
2022/03/12 03:46:34;;;;;;;3.80;1.90;;;8.70;41.10;;;;;;4897598;29;20051;-81
2022/03/12 03:49:02;;;;;;;2.95;1.95;;;8.70;41.00;;;;;;4886034;29;20071;-81
2022/03/12 03:51:29;;;;;;;3.47;2.25;;;8.70;41.10;;;;;;4897988;29;20524;-80
2022/03/12 03:53:55;;;;;;;3.47;2.15;;;8.70;41.10;;;;;;4897629;29;20039;-81
2022/03/12 03:56:21;;;;;;;6.43;2.17;;;8.70;41.10;;;;;;4885535;29;20041;-81
2022/03/12 03:58:47;;;;;;;3.42;2.03;;;8.70;41.10;;;;;;4882008;29;20035;-81
2022/03/12 04:01:21;;;;;;;5.43;2.10;;;8.70;41.10;;;;;;4897739;29;20127;-82
2022/03/12 04:03:48;;;;;;;3.55;2.15;;;8.70;41.10;;;;;;4876740;28;20036;-81
2022/03/12 04:06:20;;;;;;;3.17;2.10;;;8.70;41.10;;;;;;4931506;29;20042;-82
2022/03/12 04:08:47;;;;;;;3.72;2.17;;;8.70;41.10;;;;;;4882843;29;20159;-82
2022/03/12 04:11:21;;;;;;;2.97;2.30;;;8.70;41.20;;;;;;4929860;28;20051;-82
2022/03/12 04:13:49;;;;;;;3.03;2.13;;;8.70;41.10;;;;;;4929746;29;20044;-80
2022/03/12 04:16:18;;;;;;;4.20;2.35;;;8.60;41.10;;;;;;4902682;29;20044;-83
2022/03/12 04:18:46;;;;;;;3.08;2.50;;;8.70;41.20;;;;;;4898631;29;20028;-80
2022/03/12 04:21:14;;;;;;;4.05;2.42;;;8.60;41.10;;;;;;4900349;29;20040;-81
2022/03/12 04:23:41;;;;;;;3.45;2.40;;;8.70;41.20;;;;;;4900368;28;20036;-80
2022/03/12 04:26:09;;;;;;;2.95;2.28;;;8.60;41.20;;;;;;4900482;28;20040;-80
2022/03/12 04:28:36;;;;;;;3.03;2.25;;;8.60;41.30;;;;;;4887894;29;20081;-80
2022/03/12 04:31:04;;;;;;;2.72;2.15;;;8.60;41.30;;;;;;4898256;28;20036;-80
2022/03/12 04:33:32;;;;;;;3.67;2.42;;;8.60;41.30;;;;;;4914088;29;20163;-80
2022/03/12 04:35:59;;;;;;;3.17;2.53;;;8.70;41.40;;;;;;4902081;28;20052;-81
2022/03/12 04:38:27;;;;;;;3.95;2.40;;;8.60;41.30;;;;;;4896458;29;20127;-81
2022/03/12 04:40:56;;;;;;;2.53;2.22;;;8.60;41.40;;;;;;4917220;29;20051;-80
2022/03/12 04:43:24;;;;;;;3.40;2.50;;;8.70;41.40;;;;;;4897313;29;20079;-81
2022/03/12 04:45:51;;;;;;;3.05;2.38;;;8.70;41.40;;;;;;4913092;28;20028;-81
2022/03/12 04:48:22;;;;;;;3.45;2.28;;;8.60;41.30;;;;;;4898382;29;20369;-81
2022/03/12 04:50:52;;;;;;;4.18;2.17;;;8.60;41.40;;;;;;4912807;28;20043;-83
2022/03/12 04:53:19;;;;;;;3.20;2.13;;;8.60;41.40;;;;;;4927614;28;20040;-81
2022/03/12 04:55:46;;;;;;;3.55;2.30;;;8.60;41.40;;;;;;4896171;28;20448;-81
2022/03/12 04:58:13;;;;;;;2.85;2.20;;;8.60;41.40;;;;;;4896367;29;20550;-81
2022/03/12 05:00:41;;;;;;;2.78;2.15;;;8.60;41.40;;;;;;4929281;29;20041;-82
2022/03/12 05:03:11;;;;;;;3.58;2.30;;;8.60;41.40;;;;;;4882981;29;20116;-81
2022/03/12 05:05:49;;;;;;;2.97;2.38;;;8.60;41.30;;;;;;4899234;29;20036;-80
2022/03/12 05:08:24;;;;;;;2.55;2.35;;;8.60;41.40;;;;;;4914697;29;20587;-81
2022/03/12 05:10:52;;;;;;;4.78;2.38;;;8.60;41.40;;;;;;4914397;29;20127;-82
2022/03/12 05:13:23;;;;;;;5.35;2.10;;;8.60;41.40;;;;;;4899895;29;20532;-81
2022/03/12 05:15:52;;;;;;;2.80;2.15;;;8.60;41.40;;;;;;4900935;28;20119;-81
2022/03/12 05:18:19;;;;;;;3.83;2.30;;;8.70;41.40;;;;;;4906534;29;20429;-79
2022/03/12 05:20:48;;;;;;;3.42;2.33;;;8.70;41.50;;;;;;4915185;29;20064;-84
2022/03/12 05:23:16;;;;;;;4.32;2.40;;;8.70;41.60;;;;;;4909674;29;20040;-81
2022/03/12 05:25:43;;;;;;;4.43;2.83;;;8.70;41.50;;;;;;4921536;29;20122;-83
2022/03/12 05:28:15;;;;;;;3.78;2.47;;;8.70;41.60;;;;;;4912456;29;20055;-86
2022/03/12 05:30:45;;;;;;;4.20;2.63;;;8.70;41.70;;;;;;4922913;29;20492;-84
2022/03/12 05:33:12;;;;;;;3.25;2.40;;;8.70;41.60;;;;;;4901346;29;20511;-81
2022/03/12 05:35:42;;;;;;;4.50;2.60;;;8.70;41.70;;;;;;4901817;29;20415;-84
2022/03/12 05:38:11;;;;;;;6.00;2.78;;;8.70;41.80;;;;;;4903095;29;20040;-83
2022/03/12 05:40:41;;;;;;;4.78;2.65;;;8.70;42.00;;;;;;4901983;29;20056;-87
2022/03/12 05:43:14;;;;;;;3.25;2.70;;;8.70;42.20;;;;;;4932535;29;20057;-87
2022/03/12 05:45:45;;;;;;;4.55;2.50;;;8.70;43.10;;;;;;4917880;29;20035;-90
2022/03/12 05:48:14;;;;;;;3.88;2.40;;;8.70;42.30;;;;;;4885775;29;20084;-90
2022/03/12 05:50:41;;;;;;;7.70;2.55;;;8.70;42.40;;;;;;4916261;29;20452;-88
2022/03/12 05:53:09;;;;;;;5.50;3.10;;;8.70;42.50;;;;;;4885360;29;20411;-85
2022/03/12 05:55:39;;;;;;;4.45;2.50;;;8.70;42.40;;;;;;4872999;29;20111;-89
2022/03/12 05:58:10;;;;;;;3.95;2.53;;;8.70;42.40;;;;;;4901813;29;20037;-89
2022/03/12 06:00:39;;;;;;;4.40;2.63;;;8.80;42.40;;;;;;4902882;29;20099;-86
2022/03/12 06:03:06;;;;;;;2.70;2.30;;;8.70;42.30;;;;;;4903895;29;20512;-95
2022/03/12 06:05:35;;;;;;;3.75;2.40;;;8.80;42.30;;;;;;4937645;29;20096;-93
2022/03/12 06:08:01;;;;;;;3.33;2.40;;;8.80;42.30;;;;;;4904997;29;20048;-96
2022/03/12 06:10:30;;;;;;;3.60;2.45;;;8.80;42.40;;;;;;4902859;29;20076;-89
2022/03/12 06:12:59;;;;;;;2.67;2.42;;;8.80;42.40;;;;;;4886700;29;20036;-91
2022/03/12 06:15:26;;;;;;;3.30;2.30;;;8.80;42.50;;;;;;4888450;29;20047;-89
2022/03/12 06:17:53;;;;;;;3.25;2.25;;;8.80;42.60;;;;;;4904635;29;20036;-92
2022/03/12 06:20:21;;;;;;;4.60;2.60;;;8.80;42.60;;;;;;4893286;29;20037;-91
2022/03/12 06:22:48;;;;;;;5.30;2.13;;;8.80;42.70;;;;;;4873764;29;20051;-90
2022/03/12 06:25:17;;;;;;;3.25;2.22;;;8.80;42.60;;;;;;4932391;29;20520;-85
2022/03/12 06:27:47;;;;;;;3.45;2.33;;;8.80;42.70;;;;;;4905016;29;20040;-82
2022/03/12 06:30:15;;;;;;;2.90;2.25;;;8.80;42.80;;;;;;4910298;29;20137;-86
2022/03/12 06:32:44;;;;;;;5.25;3.13;;;8.80;42.90;;;;;;4930377;29;20133;-87
2022/03/12 06:35:12;;;;;;;3.33;2.38;;;8.80;43.00;;;;;;4906320;29;20048;-84
2022/03/12 06:37:39;;;;;;;5.40;2.72;;;8.80;43.00;;;;;;4900377;29;20051;-88
2022/03/12 06:40:08;;;;;;;5.30;2.67;;;8.90;43.20;;;;;;4921070;29;20048;-86
2022/03/12 06:42:36;;;;;;;3.63;2.88;;;8.80;43.20;;;;;;4906641;29;20136;-87
2022/03/12 06:45:02;;;;;;;5.18;3.80;;;8.80;43.20;;;;;;4872393;29;20077;-84
2022/03/12 06:47:29;;;;;;;11.45;4.10;;;8.90;45.80;;;;;;4897841;29;20051;-80
2022/03/12 06:49:57;;;;;;;9.05;4.35;;;8.90;49.10;;;;;;4900684;28;20063;-84
2022/03/12 06:52:27;;;;;;;6.32;3.42;;;9.00;50.40;;;;;;4898150;29;20039;-85
2022/03/12 06:54:54;;;;;;;7.13;3.58;;;9.00;50.50;;;;;;4914350;29;20032;-80
2022/03/12 06:57:21;;;;;;;6.97;3.95;;;9.00;50.00;;;;;;4900471;29;20032;-80
2022/03/12 06:59:47;;;;;;;9.50;5.03;;;9.00;49.40;;;;;;4913831;29;20047;-82
2022/03/12 07:02:13;;;;;;;15.45;6.97;;;9.10;50.80;;;;;;4886757;29;20475;-82
2022/03/12 07:04:39;;;;;;;12.43;6.40;;;9.10;52.50;;;;;;4929967;28;20056;-83
2022/03/12 07:07:07;;;;;;;13.80;6.63;;;9.10;53.00;;;;;;4913771;28;20053;-82
2022/03/12 07:09:36;;;;;;;15.13;6.30;;;9.10;53.10;;;;;;4903063;29;20500;-82
2022/03/12 07:12:03;;;;;;;17.50;6.63;;;9.20;52.80;;;;;;4913434;28;20036;-83
2022/03/12 07:14:32;;;;;;;11.38;5.75;;;9.10;52.60;;;;;;4898859;29;20040;-83
2022/03/12 07:16:58;;;;;;;14.45;5.43;;;9.20;52.40;;;;;;4898577;29;20068;-83
2022/03/12 07:19:24;;;;;;;13.48;5.68;;;9.20;52.30;;;;;;4899940;28;20129;-83
2022/03/12 07:21:51;;;;;;;7.82;5.05;;;9.20;52.20;;;;;;4898681;28;20319;-83
2022/03/12 07:24:17;;;;;;;12.70;5.68;;;9.20;52.00;;;;;;4899804;29;20496;-83
2022/03/12 07:26:45;;;;;;;7.97;5.18;;;9.20;51.90;;;;;;4900583;29;20048;-83
2022/03/12 07:29:12;;;;;;;9.02;5.50;;;9.30;51.70;;;;;;4899034;29;20036;-83
2022/03/12 07:31:39;;;;;;;9.77;5.25;;;9.20;51.60;;;;;;4910529;28;20096;-82
2022/03/12 07:34:06;;;;;;;9.88;4.80;;;9.20;51.50;;;;;;4895831;28;20036;-83
2022/03/12 07:36:32;;;;;;;10.50;4.65;;;9.30;51.20;;;;;;4903174;29;20609;-83
2022/03/12 07:38:59;;;;;;;5.15;4.05;;;9.30;51.10;;;;;;4900000;28;20056;-82
2022/03/12 07:41:27;;;;;;;13.13;4.60;;;9.30;51.00;;;;;;4887837;29;20104;-82
2022/03/12 07:43:53;;;;;;;8.77;4.38;;;9.30;50.70;;;;;;4914084;28;20115;-83
2022/03/12 07:46:19;;;;;;;8.15;4.30;;;9.30;50.50;;;;;;4898515;29;20086;-83
2022/03/12 07:48:45;;;;;;;5.72;3.58;;;9.40;50.50;;;;;;4913602;29;20047;-82
2022/03/12 07:51:12;;;;;;;5.47;3.60;;;9.30;50.40;;;;;;4903018;29;20039;-82
2022/03/12 07:53:38;;;;;;;7.93;4.28;;;9.40;50.50;;;;;;4913615;28;20037;-82
2022/03/12 07:56:05;;;;;;;5.97;4.10;;;9.30;50.30;;;;;;4914033;29;20058;-82
2022/03/12 07:58:31;;;;;;;8.30;4.20;;;9.30;50.20;;;;;;4900212;29;20135;-83
2022/03/12 08:00:58;;;;;;;8.48;3.78;;;9.40;50.00;;;;;;4913856;29;20148;-82
2022/03/12 08:03:25;;;;;;;4.53;3.10;;;9.40;50.00;;;;;;4901451;29;20040;-82
2022/03/12 08:05:51;;;;;;;5.93;3.70;;;9.30;49.80;;;;;;4897637;29;20040;-82
2022/03/12 08:08:17;;;;;;;6.53;3.67;;;9.30;49.80;;;;;;4899682;28;20463;-83
2022/03/12 08:13:30;;;;;;;7.90;3.78;;;9.40;49.80;;;;;;4897500;29;20036;-82
2022/03/12 08:15:57;;;;;;;7.70;4.20;;;9.40;49.70;;;;;;4900625;28;20528;-81
2022/03/12 08:18:23;;;;;;;5.43;3.35;;;9.40;49.40;;;;;;4931641;29;20071;-81
2022/03/12 08:20:52;;;;;;;7.55;3.30;;;9.40;49.10;;;;;;4898845;28;20505;-82
2022/03/12 08:23:17;;;;;;;4.80;2.92;;;9.40;49.10;;;;;;4930899;28;20032;-82
2022/03/12 08:25:43;;;;;;;4.85;3.58;;;9.40;48.90;;;;;;4899651;28;20053;-83
2022/03/12 08:28:09;;;;;;;4.47;3.25;;;9.40;48.70;;;;;;4931516;28;20055;-82
2022/03/12 08:30:36;;;;;;;6.32;3.50;;;9.50;48.90;;;;;;4918758;29;20032;-82
2022/03/12 08:33:04;;;;;;;3.30;2.70;;;9.40;48.80;;;;;;4903795;29;20040;-82
2022/03/12 08:35:31;;;;;;;4.82;3.05;;;9.40;48.80;;;;;;4914080;28;20139;-81
2022/03/12 08:37:57;;;;;;;5.05;3.20;;;9.50;48.90;;;;;;4916532;28;20611;-83
2022/03/12 08:40:25;;;;;;;5.93;3.20;;;9.50;48.80;;;;;;4910767;28;20132;-82
2022/03/12 08:42:54;;;;;;;4.88;2.70;;;9.50;48.80;;;;;;4901693;28;20032;-82
2022/03/12 08:45:21;;;;;;;5.68;3.65;;;9.50;48.60;;;;;;4901957;29;20125;-83
2022/03/12 08:47:47;;;;;;;4.43;2.95;;;9.60;48.60;;;;;;4902182;29;20772;-83
2022/03/12 08:50:13;;;;;;;5.07;3.03;;;9.50;48.50;;;;;;4903212;28;20044;-83
2022/03/12 08:52:41;;;;;;;6.05;3.13;;;9.50;48.50;;;;;;4903018;28;20048;-82
2022/03/12 08:55:08;;;;;;;4.10;2.95;;;9.60;48.50;;;;;;4902147;28;21522;-83
2022/03/12 08:57:33;;;;;;;4.25;3.20;;;9.60;48.40;;;;;;4915978;29;20048;-84
2022/03/12 08:59:59;;;;;;;4.97;3.13;;;9.60;48.20;;;;;;4900088;29;20112;-83
2022/03/12 09:02:26;;;;;;;6.30;3.00;;;9.60;48.10;;;;;;4903424;28;20036;-84
2022/03/12 09:04:52;;;;;;;4.95;2.90;;;9.60;48.00;;;;;;4902952;28;20096;-82
2022/03/12 09:07:19;;;;;;;4.10;3.30;;;9.60;48.00;;;;;;4901072;29;20459;-84
2022/03/12 09:09:45;;;;;;;7.15;2.75;;;9.60;47.80;;;;;;4901984;29;20036;-85
2022/03/12 09:12:11;;;;;;;3.97;3.13;;;9.60;47.70;;;;;;4899464;29;20040;-85
2022/03/12 09:14:37;;;;;;;4.28;3.08;;;9.60;47.70;;;;;;4901696;29;20104;-85
2022/03/12 09:17:04;;;;;;;5.20;3.33;;;9.60;47.60;;;;;;4901721;28;20092;-82
2022/03/12 09:19:32;;;;;;;5.07;3.15;;;9.60;47.60;;;;;;4902290;28;20044;-84
2022/03/12 09:21:58;;;;;;;4.95;2.65;;;9.60;47.60;;;;;;4901999;28;20052;-85
2022/03/12 09:24:25;;;;;;;5.05;3.17;;;9.60;47.50;;;;;;4890536;29;20032;-85
2022/03/12 09:26:51;;;;;;;5.68;3.25;;;9.60;47.50;;;;;;4901266;28;20052;-83
2022/03/12 09:29:17;;;;;;;6.38;3.35;;;9.70;47.40;;;;;;4902352;28;20120;-85
2022/03/12 09:31:44;;;;;;;4.13;3.40;;;9.60;47.30;;;;;;4884935;29;20373;-86
2022/03/12 09:34:10;;;;;;;5.32;3.70;;;9.70;47.40;;;;;;4906574;29;20484;-85
2022/03/12 09:36:36;;;;;;;5.60;3.08;;;9.60;47.30;;;;;;4906394;29;20111;-84
2022/03/12 09:39:06;;;;;;;4.85;3.55;;;9.70;47.20;;;;;;4917998;29;20051;-83
2022/03/12 09:41:38;;;;;;;6.18;3.53;;;9.70;47.10;;;;;;4943490;28;20032;-84
2022/03/12 09:44:06;;;;;;;4.75;3.42;;;9.70;47.10;;;;;;4901752;29;20050;-85
2022/03/12 09:46:32;;;;;;;5.18;3.40;;;9.70;47.10;;;;;;4884100;29;20040;-84
2022/03/12 09:48:58;;;;;;;5.03;3.33;;;9.70;47.10;;;;;;4932770;29;20035;-85
2022/03/12 09:51:28;;;;;;;4.35;3.13;;;9.70;47.10;;;;;;4901825;29;20057;-85
2022/03/12 09:53:55;;;;;;;5.18;3.50;;;9.70;47.20;;;;;;4902258;28;20047;-86
2022/03/12 09:56:21;;;;;;;5.25;3.33;;;9.80;47.10;;;;;;4899431;29;20033;-86
2022/03/12 09:58:47;;;;;;;7.32;4.22;;;9.80;47.20;;;;;;4884835;29;20041;-83
2022/03/12 10:01:13;;;;;;;6.10;3.10;;;9.80;47.20;;;;;;4884747;29;20036;-85
2022/03/12 10:03:41;;;;;;;6.57;3.40;;;9.80;47.20;;;;;;4915392;29;20056;-84
2022/03/12 10:06:08;;;;;;;4.55;3.15;;;9.80;47.30;;;;;;4915638;28;20060;-84
2022/03/12 10:08:34;;;;;;;4.95;3.50;;;9.80;47.30;;;;;;4884375;29;20058;-85
2022/03/12 10:11:01;;;;;;;5.80;3.85;;;9.80;47.30;;;;;;4898570;29;20484;-86
2022/03/12 10:13:27;;;;;;;4.53;3.53;;;9.80;47.30;;;;;;4901168;28;20047;-84
2022/03/12 10:15:53;;;;;;;6.38;4.03;;;9.90;47.30;;;;;;4901567;29;20036;-85
2022/03/12 10:18:20;;;;;;;4.10;3.28;;;9.90;47.30;;;;;;4902236;29;20056;-86
2022/03/12 10:20:49;;;;;;;7.63;3.58;;;9.90;47.30;;;;;;4899005;29;20157;-85
2022/03/12 10:23:15;;;;;;;6.03;3.45;;;9.90;47.20;;;;;;4880305;29;20037;-79
2022/03/12 10:25:45;;;;;;;3.90;2.50;;;9.90;47.30;;;;;;4903633;29;20047;-91
2022/03/12 10:28:12;;;;;;;4.70;3.15;;;9.90;48.30;;;;;;4915606;28;20135;-85
2022/03/12 10:30:38;;;;;;;5.65;3.80;;;9.90;49.60;;;;;;4885253;29;20096;-91
2022/03/12 10:33:06;;;;;;;4.78;3.08;;;10.00;49.60;;;;;;4903142;29;20044;-86
2022/03/12 10:35:37;;;;;;;4.50;3.03;;;10.00;49.20;;;;;;4901127;29;20039;-88
2022/03/12 10:38:10;;;;;;;11.98;3.67;;;10.00;49.10;;;;;;4901062;28;20060;-93
2022/03/12 10:40:36;;;;;;;5.43;3.38;;;10.10;48.80;;;;;;4920561;29;20062;-91
2022/03/12 10:43:07;;;;;;;6.60;3.70;;;10.10;48.50;;;;;;4940430;29;20028;-87
2022/03/12 10:45:43;;;;;;;5.18;3.53;;;10.10;48.30;;;;;;4925561;29;20040;-88
2022/03/12 10:48:10;;;;;;;5.70;3.53;;;10.10;48.00;;;;;;4898571;29;20061;-93
2022/03/12 10:50:44;;;;;;;6.75;4.15;;;10.10;47.90;;;;;;4913412;29;20037;-90
2022/03/12 10:53:11;;;;;;;7.43;3.92;;;10.10;48.00;;;;;;4936466;28;20037;-90
2022/03/12 10:55:43;;;;;;;5.68;4.07;;;10.10;48.10;;;;;;4936472;28;20093;-93
2022/03/12 10:58:12;;;;;;;5.93;3.65;;;10.10;48.00;;;;;;4899285;28;20039;-91
2022/03/12 11:00:49;;;;;;;7.78;4.65;;;10.10;48.00;;;;;;4901662;29;20036;-89
2022/03/12 11:03:30;;;;;;;6.82;4.50;;;10.20;48.10;;;;;;4885173;29;20032;-90
2022/03/12 11:05:57;;;;;;;6.53;4.22;;;10.10;48.00;;;;;;4901987;28;20039;-92
2022/03/12 11:08:24;;;;;;;8.23;4.03;;;10.20;48.20;;;;;;4899951;29;20124;-89
2022/03/12 11:10:52;;;;;;;7.22;4.38;;;10.20;48.30;;;;;;4913146;29;20088;-86
2022/03/12 11:13:27;;;;;;;8.10;4.35;;;10.20;48.20;;;;;;4928891;28;20047;-85
2022/03/12 11:16:11;;;;;;;7.20;4.10;;;10.20;48.10;;;;;;4870972;29;20096;-86
2022/03/12 11:18:45;;;;;;;5.70;4.00;;;10.20;48.00;;;;;;4871749;29;20044;-89
2022/03/12 11:21:12;;;;;;;6.88;4.50;;;10.20;47.90;;;;;;4884782;29;20090;-86
2022/03/12 11:23:38;;;;;;;6.57;4.00;;;10.20;47.90;;;;;;4909955;29;20199;-87
2022/03/12 11:26:07;;;;;;;9.90;3.90;;;10.20;47.80;;;;;;4888048;29;20049;-85
2022/03/12 11:28:37;;;;;;;5.82;4.05;;;10.20;47.80;;;;;;4873377;29;20056;-87
2022/03/12 11:31:06;;;;;;;6.03;4.00;;;10.20;47.80;;;;;;4913250;28;20036;-88
2022/03/12 11:33:35;;;;;;;7.15;4.20;;;10.20;48.00;;;;;;4914976;29;20032;-87
2022/03/12 11:36:07;;;;;;;6.00;4.10;;;10.20;48.00;;;;;;4878435;29;20044;-87
2022/03/12 11:38:33;;;;;;;6.80;4.40;;;10.20;48.10;;;;;;4910332;28;20540;-87
2022/03/12 11:41:08;;;;;;;6.45;4.47;;;10.20;48.10;;;;;;4901813;28;20044;-87
2022/03/12 11:43:40;;;;;;;6.97;4.78;;;10.20;48.00;;;;;;4912330;29;20040;-81
2022/03/12 11:46:09;;;;;;;7.13;4.38;;;10.20;47.90;;;;;;4900883;28;20063;-82
2022/03/12 11:48:38;;;;;;;8.70;4.18;;;10.20;47.70;;;;;;4912178;29;20036;-81
2022/03/12 11:51:21;;;;;;;6.45;4.75;;;10.10;47.40;;;;;;4915925;29;20135;-80
2022/03/12 11:53:48;;;;;;;7.18;4.53;;;10.10;47.40;;;;;;4899671;29;20859;-79
2022/03/12 11:56:16;;;;;;;8.00;4.60;;;10.10;47.40;;;;;;4896775;29;20362;-80
2022/03/12 11:58:44;;;;;;;6.03;4.25;;;10.10;47.50;;;;;;4908020;29;20500;-79
2022/03/12 12:01:12;;;;;;;6.40;3.83;;;10.10;47.60;;;;;;4912200;28;20045;-80
2022/03/12 12:03:38;;;;;;;8.35;4.85;;;10.10;47.80;;;;;;4900483;29;20052;-78
2022/03/12 12:06:04;;;;;;;6.85;4.45;;;10.10;47.80;;;;;;4897957;29;20037;-78
2022/03/12 12:08:31;;;;;;;10.25;4.78;;;10.10;47.90;;;;;;4914463;28;20095;-79
2022/03/12 12:11:01;;;;;;;6.22;4.28;;;10.10;47.70;;;;;;4904972;29;20048;-80
2022/03/12 12:13:31;;;;;;;7.78;4.70;;;10.10;47.00;;;;;;4904185;29;20500;-82
2022/03/12 12:15:58;;;;;;;6.53;4.47;;;10.10;46.50;;;;;;4920167;28;20036;-81
2022/03/12 12:18:25;;;;;;;9.60;4.55;;;10.10;46.00;;;;;;4920669;29;20059;-82
2022/03/12 12:20:53;;;;;;;8.40;5.00;;;10.00;45.70;;;;;;4904741;29;20036;-82
2022/03/12 12:23:21;;;;;;;9.75;4.85;;;10.00;45.50;;;;;;4906730;28;20036;-82
2022/03/12 12:25:49;;;;;;;6.45;4.38;;;10.00;45.40;;;;;;4902913;29;20479;-85
2022/03/12 12:28:19;;;;;;;7.85;4.50;;;10.00;45.10;;;;;;4906636;28;20044;-81
2022/03/12 12:30:47;;;;;;;6.57;4.30;;;9.90;45.20;;;;;;4935662;28;20116;-80
2022/03/12 12:33:25;;;;;;;8.10;4.68;;;9.90;46.90;;;;;;4881875;29;20040;-80
2022/03/12 12:36:10;;;;;;;5.85;3.88;;;9.90;48.60;;;;;;4918412;28;20043;-80
2022/03/12 12:38:39;;;;;;;5.47;4.40;;;9.90;50.00;;;;;;4878285;29;20032;-80
2022/03/12 12:41:06;;;;;;;6.60;4.38;;;9.90;50.90;;;;;;4905795;28;20139;-81
2022/03/12 12:43:41;;;;;;;7.28;4.45;;;9.90;50.90;;;;;;4915246;29;20036;-82
2022/03/12 12:46:09;;;;;;;;;;;9.90;51.30;;;;;;4906264;28;20032;-82
2022/03/12 12:48:41;;;;;;;5.63;3.90;;;10.00;51.40;;;;;;4919001;29;20824;-82
2022/03/12 12:51:11;;;;;;;7.45;4.38;;;10.00;51.50;;;;;;4884259;29;20470;-80
2022/03/12 12:53:47;;;;;;;8.82;4.28;;;10.00;51.60;;;;;;4910237;29;20044;-82
2022/03/12 12:56:25;;;;;;;8.25;4.65;;;10.00;51.70;;;;;;4880815;29;20504;-81
2022/03/12 12:58:51;;;;;;;6.70;4.70;;;10.00;51.80;;;;;;4919108;28;20480;-82
2022/03/12 13:01:23;;;;;;;6.13;4.13;;;10.00;51.90;;;;;;4870100;29;20059;-83
2022/03/12 13:03:51;;;;;;;6.22;3.97;;;10.00;51.90;;;;;;4916107;29;20036;-83